sensor_id;sensor_type;location;lat;lon;timestamp;pressure;altitude;pressure_sealevel;temperature;humidity
11987;BME280;6053;51.382;6.768;2022-07-29T00:02:12;101195.97;;;21.29;49.82
11987;BME280;6053;51.382;6.768;2022-07-29T00:04:40;101191.00;;;21.84;47.52
11987;BME280;6053;51.382;6.768;2022-07-29T00:07:09;101182.19;;;22.44;45.86
11987;BME280;6053;51.382;6.768;2022-07-29T00:09:39;101183.63;;;21.64;48.01
11987;BME280;6053;51.382;6.768;2022-07-29T00:12:18;101183.13;;;21.23;49.61
11987;BME280;6053;51.382;6.768;2022-07-29T00:14:53;101180.63;;;20.82;49.89
11987;BME280;6053;51.382;6.768;2022-07-29T00:17:24;101180.28;;;20.93;50.98
11987;BME280;6053;51.382;6.768;2022-07-29T00:19:52;101182.13;;;21.42;49.34
11987;BME280;6053;51.382;6.768;2022-07-29T00:22:21;101182.09;;;21.77;50.64
11987;BME280;6053;51.382;6.768;2022-07-29T00:24:49;101172.84;;;22.00;47.47
11987;BME280;6053;51.382;6.768;2022-07-29T00:27:18;101179.13;;;21.34;49.02
11987;BME280;6053;51.382;6.768;2022-07-29T00:29:46;101166.50;;;21.36;48.48
11987;BME280;6053;51.382;6.768;2022-07-29T00:32:15;101161.66;;;21.42;50.63
11987;BME280;6053;51.382;6.768;2022-07-29T00:34:44;101167.97;;;21.24;48.38
11987;BME280;6053;51.382;6.768;2022-07-29T00:37:30;101148.59;;;20.43;50.46
11987;BME280;6053;51.382;6.768;2022-07-29T00:39:58;101148.59;;;20.93;52.64
11987;BME280;6053;51.382;6.768;2022-07-29T00:42:27;101142.59;;;21.05;51.05
11987;BME280;6053;51.382;6.768;2022-07-29T00:44:55;101137.06;;;21.63;50.43
11987;BME280;6053;51.382;6.768;2022-07-29T00:47:24;101127.13;;;21.71;49.94
11987;BME280;6053;51.382;6.768;2022-07-29T00:49:53;101124.97;;;21.33;51.81
11987;BME280;6053;51.382;6.768;2022-07-29T00:52:22;101122.94;;;21.10;49.58
11987;BME280;6053;51.382;6.768;2022-07-29T00:54:50;101114.94;;;20.54;52.04
11987;BME280;6053;51.382;6.768;2022-07-29T00:57:19;101104.16;;;20.76;50.01
11987;BME280;6053;51.382;6.768;2022-07-29T00:59:48;101105.75;;;20.43;54.18
11987;BME280;6053;51.382;6.768;2022-07-29T01:02:16;101114.69;;;20.45;50.98
11987;BME280;6053;51.382;6.768;2022-07-29T01:04:45;101112.41;;;20.91;51.91
11987;BME280;6053;51.382;6.768;2022-07-29T01:07:15;101111.56;;;21.25;49.39
11987;BME280;6053;51.382;6.768;2022-07-29T01:09:44;101113.41;;;21.06;51.63
11987;BME280;6053;51.382;6.768;2022-07-29T01:12:17;101110.66;;;20.12;51.82
11987;BME280;6053;51.382;6.768;2022-07-29T01:14:47;101106.69;;;21.07;52.75
11987;BME280;6053;51.382;6.768;2022-07-29T01:17:22;101108.59;;;21.11;51.61
11987;BME280;6053;51.382;6.768;2022-07-29T01:19:57;101111.28;;;20.48;53.34
11987;BME280;6053;51.382;6.768;2022-07-29T01:25:54;101090.19;;;21.82;50.46
11987;BME280;6053;51.382;6.768;2022-07-29T01:28:53;101101.16;;;20.08;53.79
11987;BME280;6053;51.382;6.768;2022-07-29T01:31:30;101098.53;;;20.76;50.85
11987;BME280;6053;51.382;6.768;2022-07-29T01:34:09;101098.19;;;21.94;48.94
11987;BME280;6053;51.382;6.768;2022-07-29T01:36:45;101101.50;;;21.77;49.83
11987;BME280;6053;51.382;6.768;2022-07-29T01:39:19;101102.94;;;21.75;49.23
11987;BME280;6053;51.382;6.768;2022-07-29T01:42:08;101106.63;;;22.75;48.71
11987;BME280;6053;51.382;6.768;2022-07-29T01:44:48;101108.34;;;23.09;47.35
11987;BME280;6053;51.382;6.768;2022-07-29T01:47:23;101103.03;;;23.07;47.63
11987;BME280;6053;51.382;6.768;2022-07-29T01:49:56;101108.34;;;23.55;46.55
11987;BME280;6053;51.382;6.768;2022-07-29T01:52:31;101102.56;;;23.33;46.96
11987;BME280;6053;51.382;6.768;2022-07-29T01:55:07;101092.41;;;21.85;48.73
11987;BME280;6053;51.382;6.768;2022-07-29T01:57:39;101086.19;;;21.88;48.03
11987;BME280;6053;51.382;6.768;2022-07-29T02:00:12;101099.38;;;21.40;50.77
11987;BME280;6053;51.382;6.768;2022-07-29T02:02:42;101084.22;;;21.65;49.23
11987;BME280;6053;51.382;6.768;2022-07-29T02:05:15;101087.34;;;21.39;49.17
11987;BME280;6053;51.382;6.768;2022-07-29T02:07:44;101076.41;;;22.29;49.60
11987;BME280;6053;51.382;6.768;2022-07-29T02:10:15;101073.66;;;22.43;49.23
11987;BME280;6053;51.382;6.768;2022-07-29T02:12:54;101077.47;;;22.71;48.79
11987;BME280;6053;51.382;6.768;2022-07-29T02:15:28;101092.84;;;22.73;48.69
11987;BME280;6053;51.382;6.768;2022-07-29T02:18:01;101093.84;;;22.82;48.32
11987;BME280;6053;51.382;6.768;2022-07-29T02:20:32;101093.50;;;23.36;47.13
11987;BME280;6053;51.382;6.768;2022-07-29T02:23:02;101102.19;;;23.67;46.32
11987;BME280;6053;51.382;6.768;2022-07-29T02:25:32;101109.03;;;23.80;46.03
11987;BME280;6053;51.382;6.768;2022-07-29T02:28:05;101114.44;;;23.90;45.70
11987;BME280;6053;51.382;6.768;2022-07-29T02:30:40;101123.75;;;23.44;46.61
11987;BME280;6053;51.382;6.768;2022-07-29T02:33:13;101139.78;;;22.97;47.39
11987;BME280;6053;51.382;6.768;2022-07-29T02:35:45;101146.72;;;21.76;49.19
11987;BME280;6053;51.382;6.768;2022-07-29T02:38:15;101143.16;;;21.70;50.12
11987;BME280;6053;51.382;6.768;2022-07-29T02:41:05;101133.69;;;21.85;48.63
11987;BME280;6053;51.382;6.768;2022-07-29T02:43:36;101127.00;;;21.81;51.10
11987;BME280;6053;51.382;6.768;2022-07-29T02:46:18;101134.41;;;21.96;48.31
11987;BME280;6053;51.382;6.768;2022-07-29T02:49:00;101152.16;;;21.67;50.15
11987;BME280;6053;51.382;6.768;2022-07-29T02:51:40;101149.03;;;22.41;49.42
11987;BME280;6053;51.382;6.768;2022-07-29T02:54:20;101144.09;;;22.08;48.59
11987;BME280;6053;51.382;6.768;2022-07-29T02:56:49;101140.97;;;21.62;50.04
11987;BME280;6053;51.382;6.768;2022-07-29T02:59:26;101149.16;;;21.24;50.22
11987;BME280;6053;51.382;6.768;2022-07-29T03:01:58;101146.03;;;20.97;52.00
11987;BME280;6053;51.382;6.768;2022-07-29T03:04:28;101137.41;;;21.22;52.50
11987;BME280;6053;51.382;6.768;2022-07-29T03:06:59;101129.81;;;19.84;54.35
11987;BME280;6053;51.382;6.768;2022-07-29T03:09:28;101122.28;;;20.39;55.43
11987;BME280;6053;51.382;6.768;2022-07-29T03:11:58;101123.50;;;20.73;55.12
11987;BME280;6053;51.382;6.768;2022-07-29T03:14:26;101131.81;;;20.38;55.81
11987;BME280;6053;51.382;6.768;2022-07-29T03:16:57;101140.09;;;20.64;53.95
11987;BME280;6053;51.382;6.768;2022-07-29T03:19:27;101150.66;;;20.77;52.17
11987;BME280;6053;51.382;6.768;2022-07-29T03:21:56;101159.28;;;20.36;53.35
11987;BME280;6053;51.382;6.768;2022-07-29T03:24:30;101157.63;;;20.30;54.14
11987;BME280;6053;51.382;6.768;2022-07-29T03:26:59;101160.06;;;20.47;55.14
11987;BME280;6053;51.382;6.768;2022-07-29T03:29:28;101150.31;;;20.34;55.69
11987;BME280;6053;51.382;6.768;2022-07-29T03:32:03;101159.19;;;20.02;56.42
11987;BME280;6053;51.382;6.768;2022-07-29T03:34:35;101172.28;;;20.71;55.70
11987;BME280;6053;51.382;6.768;2022-07-29T03:37:05;101175.75;;;20.48;55.28
11987;BME280;6053;51.382;6.768;2022-07-29T03:39:40;101194.72;;;21.11;54.80
11987;BME280;6053;51.382;6.768;2022-07-29T03:42:12;101193.34;;;21.08;55.16
11987;BME280;6053;51.382;6.768;2022-07-29T03:44:45;101209.31;;;21.76;52.36
11987;BME280;6053;51.382;6.768;2022-07-29T03:47:19;101219.41;;;21.53;53.62
11987;BME280;6053;51.382;6.768;2022-07-29T03:50:11;101222.88;;;21.98;51.48
11987;BME280;6053;51.382;6.768;2022-07-29T03:52:43;101221.72;;;20.52;55.11
11987;BME280;6053;51.382;6.768;2022-07-29T03:55:12;101217.50;;;20.60;56.00
11987;BME280;6053;51.382;6.768;2022-07-29T03:57:42;101220.22;;;21.14;55.07
11987;BME280;6053;51.382;6.768;2022-07-29T04:00:12;101224.84;;;21.39;54.31
11987;BME280;6053;51.382;6.768;2022-07-29T04:02:44;101225.34;;;21.07;56.63
11987;BME280;6053;51.382;6.768;2022-07-29T04:05:17;101208.16;;;20.10;60.58
11987;BME280;6053;51.382;6.768;2022-07-29T04:07:47;101213.34;;;20.97;57.64
11987;BME280;6053;51.382;6.768;2022-07-29T04:10:16;101192.84;;;19.20;67.69
11987;BME280;6053;51.382;6.768;2022-07-29T04:12:57;101196.19;;;19.84;65.10
11987;BME280;6053;51.382;6.768;2022-07-29T04:15:26;101179.44;;;20.38;64.27
11987;BME280;6053;51.382;6.768;2022-07-29T04:17:59;101169.72;;;20.25;65.07
11987;BME280;6053;51.382;6.768;2022-07-29T04:20:27;101168.28;;;20.33;66.74
11987;BME280;6053;51.382;6.768;2022-07-29T04:22:56;101160.38;;;19.75;65.82
11987;BME280;6053;51.382;6.768;2022-07-29T04:25:24;101157.88;;;20.39;69.97
11987;BME280;6053;51.382;6.768;2022-07-29T04:27:52;101155.97;;;20.24;65.70
11987;BME280;6053;51.382;6.768;2022-07-29T04:30:31;101135.22;;;19.24;75.07
11987;BME280;6053;51.382;6.768;2022-07-29T04:33:03;101127.66;;;18.69;79.30
11987;BME280;6053;51.382;6.768;2022-07-29T04:35:35;101130.50;;;18.89;76.73
11987;BME280;6053;51.382;6.768;2022-07-29T04:38:16;101128.19;;;17.35;92.95
11987;BME280;6053;51.382;6.768;2022-07-29T04:40:44;101132.31;;;16.95;100.00
11987;BME280;6053;51.382;6.768;2022-07-29T04:43:16;101128.09;;;16.60;100.00
11987;BME280;6053;51.382;6.768;2022-07-29T04:45:48;101121.94;;;18.18;95.49
11987;BME280;6053;51.382;6.768;2022-07-29T04:48:18;101123.13;;;18.57;90.34
11987;BME280;6053;51.382;6.768;2022-07-29T04:50:54;101127.81;;;18.21;92.38
11987;BME280;6053;51.382;6.768;2022-07-29T04:53:23;101135.44;;;18.51;86.00
11987;BME280;6053;51.382;6.768;2022-07-29T04:55:51;101149.22;;;17.15;96.94
11987;BME280;6053;51.382;6.768;2022-07-29T04:58:20;101149.94;;;17.38;98.99
11987;BME280;6053;51.382;6.768;2022-07-29T05:00:50;101158.16;;;18.02;95.29
11987;BME280;6053;51.382;6.768;2022-07-29T05:03:20;101159.94;;;18.29;91.11
11987;BME280;6053;51.382;6.768;2022-07-29T05:05:48;101169.09;;;18.14;91.32
11987;BME280;6053;51.382;6.768;2022-07-29T05:08:16;101167.94;;;19.70;80.65
11987;BME280;6053;51.382;6.768;2022-07-29T05:10:45;101178.59;;;19.06;84.18
11987;BME280;6053;51.382;6.768;2022-07-29T05:13:13;101181.94;;;19.14;83.15
11987;BME280;6053;51.382;6.768;2022-07-29T05:15:43;101193.88;;;20.01;78.12
11987;BME280;6053;51.382;6.768;2022-07-29T05:18:11;101178.22;;;21.09;72.14
11987;BME280;6053;51.382;6.768;2022-07-29T05:20:41;101172.78;;;21.52;70.39
11987;BME280;6053;51.382;6.768;2022-07-29T05:23:10;101170.66;;;21.39;70.72
11987;BME280;6053;51.382;6.768;2022-07-29T05:25:39;101161.47;;;20.44;75.12
11987;BME280;6053;51.382;6.768;2022-07-29T05:28:10;101142.72;;;19.85;79.67
11987;BME280;6053;51.382;6.768;2022-07-29T05:30:39;101131.28;;;19.41;86.59
11987;BME280;6053;51.382;6.768;2022-07-29T05:33:07;101130.88;;;20.04;79.62
11987;BME280;6053;51.382;6.768;2022-07-29T05:35:57;101132.25;;;20.06;81.23
11987;BME280;6053;51.382;6.768;2022-07-29T05:38:27;101144.81;;;20.68;75.03
11987;BME280;6053;51.382;6.768;2022-07-29T05:40:57;101154.66;;;21.05;72.83
11987;BME280;6053;51.382;6.768;2022-07-29T05:43:26;101149.91;;;21.40;71.22
11987;BME280;6053;51.382;6.768;2022-07-29T05:45:55;101139.69;;;21.20;71.77
11987;BME280;6053;51.382;6.768;2022-07-29T05:48:23;101126.00;;;20.24;79.49
11987;BME280;6053;51.382;6.768;2022-07-29T05:50:52;101123.22;;;19.19;82.70
11987;BME280;6053;51.382;6.768;2022-07-29T05:53:23;101131.22;;;17.76;92.78
11987;BME280;6053;51.382;6.768;2022-07-29T05:55:51;101122.03;;;17.33;96.82
11987;BME280;6053;51.382;6.768;2022-07-29T05:58:20;101121.47;;;18.51;92.46
11987;BME280;6053;51.382;6.768;2022-07-29T06:00:48;101121.13;;;17.64;99.36
11987;BME280;6053;51.382;6.768;2022-07-29T06:03:17;101133.47;;;18.57;93.23
11987;BME280;6053;51.382;6.768;2022-07-29T06:05:45;101128.41;;;18.28;94.19
11987;BME280;6053;51.382;6.768;2022-07-29T06:08:13;101134.94;;;19.46;86.16
11987;BME280;6053;51.382;6.768;2022-07-29T06:10:43;101141.59;;;19.61;85.18
11987;BME280;6053;51.382;6.768;2022-07-29T06:13:12;101143.25;;;20.91;76.77
11987;BME280;6053;51.382;6.768;2022-07-29T06:15:43;101140.69;;;21.34;73.43
11987;BME280;6053;51.382;6.768;2022-07-29T06:18:12;101139.47;;;20.72;78.53
11987;BME280;6053;51.382;6.768;2022-07-29T06:20:41;101138.25;;;17.78;93.50
11987;BME280;6053;51.382;6.768;2022-07-29T06:23:09;101142.78;;;19.24;87.88
11987;BME280;6053;51.382;6.768;2022-07-29T06:25:39;101140.81;;;19.14;87.13
11987;BME280;6053;51.382;6.768;2022-07-29T06:28:09;101160.44;;;20.30;80.05
11987;BME280;6053;51.382;6.768;2022-07-29T06:30:38;101152.78;;;18.69;88.71
11987;BME280;6053;51.382;6.768;2022-07-29T06:33:07;101152.84;;;19.04;90.20
11987;BME280;6053;51.382;6.768;2022-07-29T06:35:36;101159.56;;;19.34;88.47
11987;BME280;6053;51.382;6.768;2022-07-29T06:38:08;101168.53;;;18.95;89.14
11987;BME280;6053;51.382;6.768;2022-07-29T06:40:57;101169.31;;;20.47;78.93
11987;BME280;6053;51.382;6.768;2022-07-29T06:43:35;101182.34;;;21.17;75.59
11987;BME280;6053;51.382;6.768;2022-07-29T06:46:19;101187.41;;;21.15;75.02
11987;BME280;6053;51.382;6.768;2022-07-29T06:48:48;101194.53;;;20.47;79.27
11987;BME280;6053;51.382;6.768;2022-07-29T06:51:18;101207.78;;;20.32;78.41
11987;BME280;6053;51.382;6.768;2022-07-29T06:53:50;101212.09;;;20.04;82.12
11987;BME280;6053;51.382;6.768;2022-07-29T06:56:29;101215.38;;;21.25;76.06
11987;BME280;6053;51.382;6.768;2022-07-29T06:59:08;101224.06;;;21.92;71.11
11987;BME280;6053;51.382;6.768;2022-07-29T07:01:38;101239.97;;;22.31;68.76
11987;BME280;6053;51.382;6.768;2022-07-29T07:04:09;101232.22;;;21.59;72.38
11987;BME280;6053;51.382;6.768;2022-07-29T07:06:38;101236.91;;;22.27;68.39
11987;BME280;6053;51.382;6.768;2022-07-29T07:09:07;101244.34;;;22.61;66.58
11987;BME280;6053;51.382;6.768;2022-07-29T07:11:35;101242.94;;;22.64;66.17
11987;BME280;6053;51.382;6.768;2022-07-29T07:14:04;101246.72;;;22.73;65.65
11987;BME280;6053;51.382;6.768;2022-07-29T07:16:33;101252.88;;;22.75;65.61
11987;BME280;6053;51.382;6.768;2022-07-29T07:19:02;101253.81;;;22.70;65.77
11987;BME280;6053;51.382;6.768;2022-07-29T07:21:30;101254.13;;;22.45;68.71
11987;BME280;6053;51.382;6.768;2022-07-29T07:24:02;101251.50;;;22.72;65.49
11987;BME280;6053;51.382;6.768;2022-07-29T07:26:30;101251.38;;;22.64;65.84
11987;BME280;6053;51.382;6.768;2022-07-29T07:28:59;101246.09;;;22.33;67.75
11987;BME280;6053;51.382;6.768;2022-07-29T07:31:27;101249.66;;;22.44;66.61
11987;BME280;6053;51.382;6.768;2022-07-29T07:33:57;101246.84;;;22.63;65.74
11987;BME280;6053;51.382;6.768;2022-07-29T07:36:26;101241.47;;;22.66;65.28
11987;BME280;6053;51.382;6.768;2022-07-29T07:38:54;101249.75;;;21.46;70.27
11987;BME280;6053;51.382;6.768;2022-07-29T07:41:23;101239.34;;;21.81;72.13
11987;BME280;6053;51.382;6.768;2022-07-29T07:43:51;101246.22;;;22.23;67.18
11987;BME280;6053;51.382;6.768;2022-07-29T07:46:19;101240.91;;;22.21;67.33
11987;BME280;6053;51.382;6.768;2022-07-29T07:48:48;101235.84;;;21.65;69.18
11987;BME280;6053;51.382;6.768;2022-07-29T07:51:18;101231.84;;;21.71;70.33
11987;BME280;6053;51.382;6.768;2022-07-29T07:53:46;101235.03;;;21.88;70.22
11987;BME280;6053;51.382;6.768;2022-07-29T07:56:16;101226.81;;;21.34;74.42
11987;BME280;6053;51.382;6.768;2022-07-29T07:58:44;101220.00;;;21.45;71.87
11987;BME280;6053;51.382;6.768;2022-07-29T08:01:13;101229.91;;;21.32;74.68
11987;BME280;6053;51.382;6.768;2022-07-29T08:03:44;101221.03;;;21.20;73.38
11987;BME280;6053;51.382;6.768;2022-07-29T08:06:13;101225.97;;;20.39;79.42
11987;BME280;6053;51.382;6.768;2022-07-29T08:08:43;101232.16;;;20.91;76.75
11987;BME280;6053;51.382;6.768;2022-07-29T08:11:11;101228.41;;;21.06;75.81
11987;BME280;6053;51.382;6.768;2022-07-29T08:13:40;101219.84;;;20.32;80.48
11987;BME280;6053;51.382;6.768;2022-07-29T08:16:08;101221.66;;;19.87;86.04
11987;BME280;6053;51.382;6.768;2022-07-29T08:18:42;101222.78;;;19.86;89.39
11987;BME280;6053;51.382;6.768;2022-07-29T08:21:11;101229.31;;;20.41;83.03
11987;BME280;6053;51.382;6.768;2022-07-29T08:23:43;101225.72;;;20.36;83.33
11987;BME280;6053;51.382;6.768;2022-07-29T08:26:26;101226.34;;;20.12;83.44
11987;BME280;6053;51.382;6.768;2022-07-29T08:28:55;101232.00;;;20.02;84.48
11987;BME280;6053;51.382;6.768;2022-07-29T08:31:23;101233.94;;;21.21;79.07
11987;BME280;6053;51.382;6.768;2022-07-29T08:33:51;101238.38;;;20.23;85.04
11987;BME280;6053;51.382;6.768;2022-07-29T08:36:20;101243.13;;;20.92;80.09
11987;BME280;6053;51.382;6.768;2022-07-29T08:38:50;101246.81;;;20.83;83.96
11987;BME280;6053;51.382;6.768;2022-07-29T08:41:18;101246.06;;;20.67;79.55
11987;BME280;6053;51.382;6.768;2022-07-29T08:43:48;101243.22;;;21.56;77.19
11987;BME280;6053;51.382;6.768;2022-07-29T08:46:16;101234.78;;;20.02;84.20
11987;BME280;6053;51.382;6.768;2022-07-29T08:48:46;101227.84;;;19.64;88.51
11987;BME280;6053;51.382;6.768;2022-07-29T08:51:15;101230.63;;;19.79;86.95
11987;BME280;6053;51.382;6.768;2022-07-29T08:53:47;101231.53;;;20.55;82.12
11987;BME280;6053;51.382;6.768;2022-07-29T08:56:18;101236.22;;;19.89;85.94
11987;BME280;6053;51.382;6.768;2022-07-29T08:58:48;101237.81;;;20.11;84.52
11987;BME280;6053;51.382;6.768;2022-07-29T09:01:23;101231.66;;;20.14;84.54
11987;BME280;6053;51.382;6.768;2022-07-29T09:04:08;101238.41;;;20.08;84.03
11987;BME280;6053;51.382;6.768;2022-07-29T09:06:44;101229.56;;;20.45;83.61
11987;BME280;6053;51.382;6.768;2022-07-29T09:09:13;101234.25;;;19.85;86.52
11987;BME280;6053;51.382;6.768;2022-07-29T09:11:44;101233.78;;;20.47;82.25
11987;BME280;6053;51.382;6.768;2022-07-29T09:14:13;101229.47;;;19.95;86.83
11987;BME280;6053;51.382;6.768;2022-07-29T09:16:48;101225.00;;;19.84;83.35
11987;BME280;6053;51.382;6.768;2022-07-29T09:19:26;101224.97;;;19.99;85.63
11987;BME280;6053;51.382;6.768;2022-07-29T09:21:56;101225.56;;;19.50;90.29
11987;BME280;6053;51.382;6.768;2022-07-29T09:24:38;101212.69;;;19.54;91.15
11987;BME280;6053;51.382;6.768;2022-07-29T09:27:20;101207.69;;;19.16;97.91
11987;BME280;6053;51.382;6.768;2022-07-29T09:29:57;101213.53;;;19.45;93.66
11987;BME280;6053;51.382;6.768;2022-07-29T09:32:26;101209.09;;;20.60;87.05
11987;BME280;6053;51.382;6.768;2022-07-29T09:35:20;101206.88;;;20.57;89.54
11987;BME280;6053;51.382;6.768;2022-07-29T09:37:49;101217.25;;;21.01;82.99
11987;BME280;6053;51.382;6.768;2022-07-29T09:40:20;101211.44;;;20.32;87.36
11987;BME280;6053;51.382;6.768;2022-07-29T09:42:52;101215.16;;;20.77;84.30
11987;BME280;6053;51.382;6.768;2022-07-29T09:45:30;101202.94;;;20.47;84.61
11987;BME280;6053;51.382;6.768;2022-07-29T09:48:00;101207.84;;;20.81;84.09
11987;BME280;6053;51.382;6.768;2022-07-29T09:50:42;101215.03;;;20.98;82.19
11987;BME280;6053;51.382;6.768;2022-07-29T09:53:11;101213.81;;;19.89;88.99
11987;BME280;6053;51.382;6.768;2022-07-29T09:55:48;101210.09;;;20.14;88.40
11987;BME280;6053;51.382;6.768;2022-07-29T09:58:20;101211.00;;;20.64;84.69
11987;BME280;6053;51.382;6.768;2022-07-29T10:00:52;101210.41;;;20.02;87.86
11987;BME280;6053;51.382;6.768;2022-07-29T10:03:22;101208.59;;;20.97;82.20
11987;BME280;6053;51.382;6.768;2022-07-29T10:06:06;101205.88;;;20.12;89.45
11987;BME280;6053;51.382;6.768;2022-07-29T10:08:36;101214.69;;;20.60;83.93
11987;BME280;6053;51.382;6.768;2022-07-29T10:11:12;101204.16;;;21.59;78.75
11987;BME280;6053;51.382;6.768;2022-07-29T10:13:45;101218.09;;;21.01;84.56
11987;BME280;6053;51.382;6.768;2022-07-29T10:16:15;101220.22;;;21.54;82.99
11987;BME280;6053;51.382;6.768;2022-07-29T10:18:45;101220.56;;;22.29;74.44
11987;BME280;6053;51.382;6.768;2022-07-29T10:21:14;101223.66;;;22.04;75.44
11987;BME280;6053;51.382;6.768;2022-07-29T10:24:03;101220.28;;;22.74;70.55
11987;BME280;6053;51.382;6.768;2022-07-29T10:26:32;101221.38;;;22.97;69.57
11987;BME280;6053;51.382;6.768;2022-07-29T10:29:02;101222.81;;;24.39;63.46
11987;BME280;6053;51.382;6.768;2022-07-29T10:31:41;101223.06;;;23.49;66.42
11987;BME280;6053;51.382;6.768;2022-07-29T10:34:20;101222.88;;;23.79;64.34
11987;BME280;6053;51.382;6.768;2022-07-29T10:37:01;101223.22;;;24.60;61.78
11987;BME280;6053;51.382;6.768;2022-07-29T10:39:50;101222.03;;;24.75;62.19
11987;BME280;6053;51.382;6.768;2022-07-29T10:42:24;101229.13;;;25.36;58.97
11987;BME280;6053;51.382;6.768;2022-07-29T10:45:02;101222.69;;;25.44;57.19
11987;BME280;6053;51.382;6.768;2022-07-29T10:47:32;101227.00;;;25.19;57.35
11987;BME280;6053;51.382;6.768;2022-07-29T10:50:06;101224.03;;;25.10;54.93
11987;BME280;6053;51.382;6.768;2022-07-29T10:52:54;101226.47;;;25.03;55.71
11987;BME280;6053;51.382;6.768;2022-07-29T10:55:32;101224.78;;;25.61;55.67
11987;BME280;6053;51.382;6.768;2022-07-29T10:58:13;101228.72;;;24.92;55.19
11987;BME280;6053;51.382;6.768;2022-07-29T11:00:47;101225.72;;;24.20;57.02
11987;BME280;6053;51.382;6.768;2022-07-29T11:03:45;101231.25;;;24.66;58.03
11987;BME280;6053;51.382;6.768;2022-07-29T11:06:23;101235.91;;;25.35;56.33
11987;BME280;6053;51.382;6.768;2022-07-29T11:09:16;101237.66;;;23.70;53.12
11987;BME280;6053;51.382;6.768;2022-07-29T11:11:51;101238.00;;;25.74;54.31
11987;BME280;6053;51.382;6.768;2022-07-29T11:15:05;101236.84;;;25.98;52.89
11987;BME280;6053;51.382;6.768;2022-07-29T11:18:05;101229.75;;;24.97;56.58
11987;BME280;6053;51.382;6.768;2022-07-29T11:20:43;101219.88;;;24.30;56.23
11987;BME280;6053;51.382;6.768;2022-07-29T11:23:23;101226.91;;;24.97;54.98
11987;BME280;6053;51.382;6.768;2022-07-29T11:26:13;101228.97;;;25.19;54.96
11987;BME280;6053;51.382;6.768;2022-07-29T11:28:54;101229.63;;;25.15;55.01
11987;BME280;6053;51.382;6.768;2022-07-29T11:31:35;101229.50;;;24.15;53.64
11987;BME280;6053;51.382;6.768;2022-07-29T11:34:24;101227.84;;;24.28;54.83
11987;BME280;6053;51.382;6.768;2022-07-29T11:37:18;101229.22;;;23.84;54.06
11987;BME280;6053;51.382;6.768;2022-07-29T11:40:18;101225.47;;;23.75;58.11
11987;BME280;6053;51.382;6.768;2022-07-29T11:42:51;101226.47;;;24.26;54.77
11987;BME280;6053;51.382;6.768;2022-07-29T11:45:27;101229.78;;;24.28;54.64
11987;BME280;6053;51.382;6.768;2022-07-29T11:48:17;101235.34;;;24.60;56.35
11987;BME280;6053;51.382;6.768;2022-07-29T11:50:59;101242.44;;;24.85;53.88
11987;BME280;6053;51.382;6.768;2022-07-29T11:53:29;101240.56;;;24.53;56.91
11987;BME280;6053;51.382;6.768;2022-07-29T11:55:59;101239.38;;;23.66;58.55
11987;BME280;6053;51.382;6.768;2022-07-29T11:58:30;101238.56;;;24.12;58.61
11987;BME280;6053;51.382;6.768;2022-07-29T12:01:00;101235.53;;;24.22;56.74
11987;BME280;6053;51.382;6.768;2022-07-29T12:03:31;101230.31;;;24.02;57.99
11987;BME280;6053;51.382;6.768;2022-07-29T12:06:11;101223.94;;;24.38;57.09
11987;BME280;6053;51.382;6.768;2022-07-29T12:08:44;101232.91;;;23.66;57.41
11987;BME280;6053;51.382;6.768;2022-07-29T12:11:18;101235.31;;;24.05;60.01
11987;BME280;6053;51.382;6.768;2022-07-29T12:13:49;101235.28;;;23.78;59.72
11987;BME280;6053;51.382;6.768;2022-07-29T12:16:19;101232.56;;;23.72;60.51
11987;BME280;6053;51.382;6.768;2022-07-29T12:18:57;101233.88;;;23.42;60.47
11987;BME280;6053;51.382;6.768;2022-07-29T12:21:27;101231.75;;;23.86;61.88
11987;BME280;6053;51.382;6.768;2022-07-29T12:23:57;101234.50;;;24.32;57.58
11987;BME280;6053;51.382;6.768;2022-07-29T12:26:35;101242.75;;;24.15;59.02
11987;BME280;6053;51.382;6.768;2022-07-29T12:29:06;101238.22;;;24.00;59.62
11987;BME280;6053;51.382;6.768;2022-07-29T12:31:38;101244.25;;;23.61;60.12
11987;BME280;6053;51.382;6.768;2022-07-29T12:34:10;101241.03;;;23.86;58.61
11987;BME280;6053;51.382;6.768;2022-07-29T12:36:43;101239.53;;;24.21;58.96
11987;BME280;6053;51.382;6.768;2022-07-29T12:39:23;101241.31;;;24.45;58.50
11987;BME280;6053;51.382;6.768;2022-07-29T12:41:54;101244.44;;;24.43;57.13
11987;BME280;6053;51.382;6.768;2022-07-29T12:44:45;101243.41;;;25.03;56.06
11987;BME280;6053;51.382;6.768;2022-07-29T12:47:14;101242.56;;;24.66;56.52
11987;BME280;6053;51.382;6.768;2022-07-29T12:49:42;101240.53;;;24.81;56.77
11987;BME280;6053;51.382;6.768;2022-07-29T12:52:30;101242.88;;;24.65;55.93
11987;BME280;6053;51.382;6.768;2022-07-29T12:54:59;101239.41;;;24.54;55.11
11987;BME280;6053;51.382;6.768;2022-07-29T12:57:28;101236.50;;;25.09;55.65
11987;BME280;6053;51.382;6.768;2022-07-29T13:00:15;101241.06;;;24.83;55.40
11987;BME280;6053;51.382;6.768;2022-07-29T13:02:43;101237.31;;;24.32;57.81
11987;BME280;6053;51.382;6.768;2022-07-29T13:05:12;101238.59;;;25.04;55.40
11987;BME280;6053;51.382;6.768;2022-07-29T13:07:42;101240.22;;;24.82;55.84
11987;BME280;6053;51.382;6.768;2022-07-29T13:10:23;101235.00;;;24.89;53.46
11987;BME280;6053;51.382;6.768;2022-07-29T13:13:06;101241.72;;;25.38;53.86
11987;BME280;6053;51.382;6.768;2022-07-29T13:15:38;101241.78;;;25.25;53.33
11987;BME280;6053;51.382;6.768;2022-07-29T13:18:28;101242.97;;;25.24;53.17
11987;BME280;6053;51.382;6.768;2022-07-29T13:21:05;101245.69;;;25.29;52.64
11987;BME280;6053;51.382;6.768;2022-07-29T13:23:40;101245.78;;;25.69;53.98
11987;BME280;6053;51.382;6.768;2022-07-29T13:26:10;101249.59;;;25.86;52.94
11987;BME280;6053;51.382;6.768;2022-07-29T13:28:39;101247.34;;;25.52;52.83
11987;BME280;6053;51.382;6.768;2022-07-29T13:31:10;101249.28;;;25.66;53.71
11987;BME280;6053;51.382;6.768;2022-07-29T13:33:38;101246.38;;;25.57;53.71
11987;BME280;6053;51.382;6.768;2022-07-29T13:36:07;101242.72;;;25.56;53.93